createdAt,value
2022-12-18T00:02:13.689Z,69.88
2022-12-18T00:04:41.660Z,60.25
2022-12-18T00:07:08.553Z,62.00
2022-12-18T00:09:39.778Z,65.30
2022-12-18T00:14:45.383Z,61.22
2022-12-18T00:17:12.312Z,68.55
2022-12-18T00:19:38.897Z,62.17
2022-12-18T00:22:07.200Z,62.50
2022-12-18T00:24:33.846Z,71.28
2022-12-18T00:27:00.430Z,67.60
2022-12-18T00:29:27.024Z,66.10
2022-12-18T00:31:53.648Z,74.75
2022-12-18T00:34:20.357Z,83.13
2022-12-18T00:36:48.866Z,89.40
2022-12-18T00:39:16.882Z,81.05
2022-12-18T00:41:43.487Z,92.35
2022-12-18T00:44:11.868Z,86.72
2022-12-18T00:46:38.798Z,78.97
2022-12-18T00:49:05.714Z,71.32
2022-12-18T00:51:32.820Z,72.50
2022-12-18T00:53:59.469Z,67.85
2022-12-18T00:56:27.816Z,65.50
2022-12-18T00:58:54.876Z,66.63
2022-12-18T01:01:21.820Z,61.72
2022-12-18T01:03:48.496Z,60.72
2022-12-18T01:06:16.519Z,63.38
2022-12-18T01:08:43.463Z,69.47
2022-12-18T01:11:11.902Z,63.28
2022-12-18T01:13:40.968Z,69.15
2022-12-18T01:16:08.328Z,69.05
2022-12-18T01:18:35.243Z,63.67
2022-12-18T01:21:01.950Z,62.28
2022-12-18T01:23:28.518Z,63.83
2022-12-18T01:25:55.116Z,61.88
2022-12-18T01:28:21.731Z,61.78
2022-12-18T01:30:49.757Z,67.38
2022-12-18T01:33:16.349Z,74.15
2022-12-18T01:35:43.375Z,66.65
2022-12-18T01:38:10.190Z,72.72
2022-12-18T01:40:36.952Z,58.30
2022-12-18T01:43:03.613Z,60.80
2022-12-18T01:45:31.299Z,64.40
2022-12-18T01:48:01.954Z,60.35
2022-12-18T01:50:33.552Z,70.10
2022-12-18T01:53:02.901Z,62.55
2022-12-18T01:55:33.131Z,73.28
2022-12-18T01:58:01.242Z,74.50
2022-12-18T02:00:28.817Z,65.32
2022-12-18T02:02:55.924Z,67.95
2022-12-18T02:05:37.088Z,63.40
2022-12-18T02:08:10.700Z,74.18
2022-12-18T02:13:15.348Z,63.00
2022-12-18T02:15:50.089Z,65.53
2022-12-18T02:18:21.520Z,62.47
2022-12-18T02:20:59.700Z,63.53
2022-12-18T02:23:46.618Z,56.90
2022-12-18T02:26:28.375Z,67.38
2022-12-18T02:28:59.848Z,67.53
2022-12-18T02:31:30.766Z,63.88
2022-12-18T02:34:01.352Z,72.63
2022-12-18T02:36:29.741Z,75.55
2022-12-18T02:38:57.420Z,69.55
2022-12-18T02:41:30.731Z,67.93
2022-12-18T02:43:59.441Z,68.18
2022-12-18T02:46:33.268Z,65.43
2022-12-18T02:49:07.847Z,65.85
2022-12-18T02:51:41.540Z,62.65
2022-12-18T02:54:15.092Z,64.68
2022-12-18T02:56:50.523Z,66.35
2022-12-18T02:59:20.548Z,63.05
2022-12-18T03:01:53.951Z,61.38
2022-12-18T03:04:27.356Z,63.20
2022-12-18T03:06:57.882Z,67.47
2022-12-18T03:09:30.595Z,67.13
2022-12-18T03:12:05.261Z,66.55
2022-12-18T03:14:35.116Z,63.75
2022-12-18T03:17:05.798Z,71.43
2022-12-18T03:19:33.897Z,60.15
2022-12-18T03:22:03.930Z,69.25
2022-12-18T03:24:32.559Z,60.38
2022-12-18T03:27:03.950Z,58.85
2022-12-18T03:29:37.073Z,67.20
2022-12-18T03:34:36.265Z,68.00
2022-12-18T03:37:04.659Z,64.00
2022-12-18T03:39:31.591Z,62.85
2022-12-18T03:42:06.846Z,69.47
2022-12-18T03:44:41.347Z,66.53
2022-12-18T03:47:13.013Z,68.53
2022-12-18T03:49:44.057Z,64.85
2022-12-18T03:52:15.546Z,60.88
2022-12-18T03:54:43.640Z,65.97
2022-12-18T03:57:15.500Z,59.58
2022-12-18T03:59:43.968Z,65.78
2022-12-18T04:02:11.228Z,66.13
2022-12-18T04:04:40.775Z,72.90
2022-12-18T04:07:08.366Z,65.10
2022-12-18T04:09:37.504Z,68.82
2022-12-18T04:12:04.412Z,71.35
2022-12-18T04:14:32.541Z,67.85
2022-12-18T04:16:59.160Z,71.55
2022-12-18T04:19:25.762Z,69.35
2022-12-18T04:21:52.297Z,70.25
2022-12-18T04:24:19.025Z,72.72
2022-12-18T04:26:45.662Z,85.20
2022-12-18T04:29:12.725Z,60.95
2022-12-18T04:31:40.693Z,71.05
2022-12-18T04:34:07.404Z,74.68
2022-12-18T04:36:34.040Z,66.25
2022-12-18T04:39:00.663Z,79.53
2022-12-18T04:41:27.297Z,75.28
2022-12-18T04:43:53.930Z,67.45
2022-12-18T04:46:20.773Z,75.75
2022-12-18T04:48:48.796Z,69.10
2022-12-18T04:51:15.507Z,71.00
2022-12-18T04:53:42.522Z,84.47
2022-12-18T04:56:12.093Z,70.70
2022-12-18T04:58:40.824Z,69.72
2022-12-18T05:01:08.118Z,64.85
2022-12-18T05:03:36.218Z,78.28
2022-12-18T05:06:04.761Z,78.68
2022-12-18T05:08:31.637Z,67.55
2022-12-18T05:11:01.715Z,62.65
2022-12-18T05:13:28.405Z,69.13
2022-12-18T05:15:56.097Z,68.80
2022-12-18T05:18:23.547Z,67.68
2022-12-18T05:20:50.355Z,61.28
2022-12-18T05:23:18.683Z,60.63
2022-12-18T05:25:48.246Z,49.40
2022-12-18T05:28:14.814Z,57.30
2022-12-18T05:30:41.376Z,65.00
2022-12-18T05:33:08.016Z,58.50
2022-12-18T05:35:34.696Z,58.35
2022-12-18T05:38:01.265Z,61.13
2022-12-18T05:40:29.244Z,66.65
2022-12-18T05:42:56.951Z,58.08
2022-12-18T05:45:23.667Z,57.30
2022-12-18T05:47:50.255Z,63.08
2022-12-18T05:50:16.978Z,58.22
2022-12-18T05:52:43.541Z,69.18
2022-12-18T05:55:10.166Z,58.72
2022-12-18T05:57:38.147Z,53.95
2022-12-18T06:00:05.653Z,61.15
2022-12-18T06:02:32.283Z,54.85
2022-12-18T06:04:59.149Z,56.60
2022-12-18T06:07:25.727Z,47.47
2022-12-18T06:09:52.298Z,56.80
2022-12-18T06:12:18.848Z,52.28
2022-12-18T06:14:46.843Z,52.92
2022-12-18T06:17:13.593Z,53.45
2022-12-18T06:19:40.195Z,52.65
2022-12-18T06:22:06.824Z,58.67
2022-12-18T06:24:33.402Z,55.78
2022-12-18T06:27:00.494Z,49.83
2022-12-18T06:29:27.122Z,51.47
2022-12-18T06:31:55.149Z,50.53
2022-12-18T06:34:21.788Z,59.28
2022-12-18T06:36:48.377Z,58.90
2022-12-18T06:39:14.983Z,51.03
2022-12-18T06:41:41.592Z,56.20
2022-12-18T06:44:08.178Z,55.05
2022-12-18T06:46:34.912Z,48.00
2022-12-18T06:49:02.844Z,57.22
2022-12-18T06:51:29.466Z,56.58
2022-12-18T06:53:56.123Z,59.17
2022-12-18T06:56:22.994Z,61.00
2022-12-18T06:58:49.576Z,57.55
2022-12-18T07:01:16.264Z,58.83
2022-12-18T07:03:44.294Z,55.33
2022-12-18T07:06:17.340Z,54.78
2022-12-18T07:08:44.174Z,56.83
2022-12-18T07:11:10.802Z,64.30
2022-12-18T07:13:37.746Z,69.50
2022-12-18T07:16:16.082Z,62.50
2022-12-18T07:18:45.556Z,53.47
2022-12-18T07:21:14.192Z,55.97
2022-12-18T07:23:42.838Z,53.92
2022-12-18T07:26:11.767Z,58.13
2022-12-18T07:28:39.867Z,60.53
2022-12-18T07:31:08.793Z,48.08
2022-12-18T07:33:35.642Z,51.92
2022-12-18T07:36:02.998Z,51.72
2022-12-18T07:38:29.624Z,59.20
2022-12-18T07:41:02.890Z,57.13
2022-12-18T07:43:29.643Z,56.35
2022-12-18T07:45:56.391Z,55.38
2022-12-18T07:48:23.121Z,61.60
2022-12-18T07:50:49.825Z,71.13
2022-12-18T07:53:16.749Z,67.57
2022-12-18T07:56:17.824Z,64.72
2022-12-18T07:58:31.933Z,63.33
2022-12-18T08:01:04.293Z,71.88
2022-12-18T08:03:31.198Z,65.95
2022-12-18T08:06:00.373Z,73.32
2022-12-18T08:08:27.058Z,72.47
2022-12-18T08:10:53.875Z,65.90
2022-12-18T08:13:20.560Z,67.82
2022-12-18T08:15:56.706Z,64.93
2022-12-18T08:18:23.454Z,63.35
2022-12-18T08:20:50.022Z,81.20
2022-12-18T08:23:16.654Z,69.68
2022-12-18T08:25:43.275Z,67.70
2022-12-18T08:28:09.873Z,63.97
2022-12-18T08:30:36.823Z,66.97
2022-12-18T08:33:05.493Z,60.22
2022-12-18T08:35:38.741Z,63.00
2022-12-18T08:38:07.786Z,63.47
2022-12-18T08:40:34.341Z,60.08
2022-12-18T08:43:01.274Z,72.85
2022-12-18T08:45:28.553Z,71.93
2022-12-18T08:47:55.142Z,67.20
2022-12-18T08:50:23.170Z,79.40
2022-12-18T08:52:49.747Z,82.15
2022-12-18T08:55:16.363Z,76.93
2022-12-18T08:57:42.869Z,77.75
2022-12-18T09:00:10.666Z,91.50
2022-12-18T09:02:37.332Z,94.30
2022-12-18T09:05:04.636Z,79.63
2022-12-18T09:07:32.578Z,84.57
2022-12-18T09:09:59.273Z,75.78
2022-12-18T09:12:26.019Z,88.63
2022-12-18T09:14:52.712Z,89.97
2022-12-18T09:17:19.312Z,95.47
2022-12-18T09:19:45.923Z,92.35
2022-12-18T09:25:36.836Z,89.80
2022-12-18T09:28:04.950Z,75.15
2022-12-18T09:30:31.918Z,78.53
2022-12-18T09:32:58.897Z,73.90
2022-12-18T09:35:25.484Z,77.32
2022-12-18T09:37:52.064Z,62.28
2022-12-18T09:40:21.928Z,70.18
2022-12-18T09:42:54.943Z,65.70
2022-12-18T09:45:22.207Z,69.13
2022-12-18T09:47:52.288Z,71.70
2022-12-18T09:50:25.723Z,67.25
2022-12-18T09:52:56.708Z,61.85
2022-12-18T09:55:35.176Z,63.00
2022-12-18T09:58:08.496Z,63.08
2022-12-18T10:00:36.060Z,59.88
2022-12-18T10:03:09.745Z,59.05
2022-12-18T10:05:48.969Z,57.03
2022-12-18T10:08:23.199Z,61.47
2022-12-18T10:10:52.699Z,58.88
2022-12-18T10:13:31.288Z,56.47
2022-12-18T10:16:24.277Z,56.72
2022-12-18T10:19:22.497Z,42.90
2022-12-18T10:21:57.219Z,54.65
2022-12-18T10:24:29.805Z,50.10
2022-12-18T10:27:00.844Z,40.95
2022-12-18T10:29:28.936Z,56.95
2022-12-18T10:31:55.468Z,49.63
2022-12-18T10:34:22.032Z,51.17
2022-12-18T10:36:48.642Z,49.40
2022-12-18T10:39:17.337Z,47.67
2022-12-18T10:41:43.818Z,58.83
2022-12-18T10:44:18.153Z,52.15
2022-12-18T10:46:47.732Z,54.40
2022-12-18T10:49:24.212Z,54.38
2022-12-18T10:51:52.366Z,53.70
2022-12-18T10:54:22.705Z,58.50
2022-12-18T10:56:49.632Z,57.47
2022-12-18T10:59:18.016Z,60.40
2022-12-18T11:01:52.216Z,53.83
2022-12-18T11:04:21.966Z,59.63
2022-12-18T11:07:00.282Z,63.63
2022-12-18T11:09:28.762Z,51.90
2022-12-18T11:11:57.748Z,55.33
2022-12-18T11:14:26.629Z,63.28
2022-12-18T11:19:43.319Z,56.33
2022-12-18T11:22:21.852Z,54.72
2022-12-18T11:25:29.417Z,56.33
2022-12-18T11:27:49.396Z,52.10
2022-12-18T11:30:23.047Z,58.85
2022-12-18T11:32:53.153Z,50.92
2022-12-18T11:35:26.659Z,54.08
2022-12-18T11:37:58.819Z,46.00
2022-12-18T11:40:39.287Z,50.53
2022-12-18T11:43:11.495Z,54.60
2022-12-18T11:45:44.247Z,52.35
2022-12-18T11:48:17.899Z,36.50
2022-12-18T11:50:49.759Z,50.65
2022-12-18T11:53:16.785Z,55.05
2022-12-18T11:55:54.148Z,44.60
2022-12-18T11:58:35.127Z,61.05
2022-12-18T12:01:11.132Z,75.07
2022-12-18T12:03:44.327Z,72.18
2022-12-18T12:06:19.835Z,89.90
2022-12-18T12:09:01.886Z,73.97
2022-12-18T12:11:40.794Z,45.58
2022-12-18T12:14:23.541Z,76.00
2022-12-18T12:16:57.757Z,53.58
2022-12-18T12:19:38.373Z,40.88
2022-12-18T12:22:14.762Z,43.28
2022-12-18T12:24:54.193Z,55.33
2022-12-18T12:27:31.492Z,54.10
2022-12-18T12:30:04.004Z,51.92
2022-12-18T12:32:46.173Z,47.13
2022-12-18T12:35:28.780Z,43.90
2022-12-18T12:38:06.838Z,51.20
2022-12-18T12:40:53.422Z,49.47
2022-12-18T12:43:32.003Z,50.95
2022-12-18T12:46:04.590Z,43.33
2022-12-18T12:48:43.780Z,52.60
2022-12-18T12:51:17.867Z,45.05
2022-12-18T12:53:46.779Z,47.65
2022-12-18T12:56:17.066Z,43.97
2022-12-18T12:58:53.412Z,45.40
2022-12-18T13:01:29.530Z,39.90
2022-12-18T13:04:08.093Z,45.70
2022-12-18T13:12:19.739Z,35.83
2022-12-18T13:13:43.747Z,42.20
2022-12-18T13:13:44.928Z,42.67
2022-12-18T13:14:46.523Z,38.40
2022-12-18T13:17:31.180Z,37.38
2022-12-18T13:20:07.904Z,40.95
2022-12-18T13:22:37.642Z,39.35
2022-12-18T13:25:34.363Z,38.90
2022-12-18T13:28:09.739Z,43.72
2022-12-18T13:30:49.726Z,41.35
2022-12-18T13:34:24.537Z,39.22
2022-12-18T13:36:37.189Z,49.45
2022-12-18T13:39:29.965Z,44.83
2022-12-18T13:42:37.050Z,40.97
2022-12-18T13:45:42.522Z,43.67
2022-12-18T13:48:18.543Z,42.17
2022-12-18T13:50:58.601Z,40.92
2022-12-18T13:53:28.756Z,34.30
2022-12-18T13:55:55.966Z,92.28
2022-12-18T13:58:22.601Z,63.15
2022-12-18T14:00:50.823Z,98.68
2022-12-18T14:03:22.867Z,59.13
2022-12-18T14:05:55.447Z,48.90
2022-12-18T14:08:22.332Z,55.08
2022-12-18T14:10:51.419Z,68.05
2022-12-18T14:13:24.281Z,66.28
2022-12-18T14:15:52.826Z,53.83
2022-12-18T14:18:25.413Z,80.93
2022-12-18T14:20:53.943Z,70.47
2022-12-18T14:23:32.845Z,77.95
2022-12-18T14:26:05.481Z,53.78
2022-12-18T14:31:00.781Z,40.60
2022-12-18T14:33:28.447Z,41.20
2022-12-18T14:35:58.307Z,50.42
2022-12-18T14:38:28.469Z,44.10
2022-12-18T14:40:56.995Z,40.50
2022-12-18T14:43:23.774Z,45.40
2022-12-18T14:45:51.855Z,44.88
2022-12-18T14:48:23.651Z,43.83
2022-12-18T14:51:00.168Z,42.20
2022-12-18T14:53:36.161Z,42.13
2022-12-18T14:56:04.240Z,46.55
2022-12-18T14:58:31.145Z,46.65
2022-12-18T15:00:57.929Z,46.28
2022-12-18T15:03:26.122Z,51.72
2022-12-18T15:05:53.777Z,47.13
2022-12-18T15:08:35.025Z,48.08
2022-12-18T15:11:01.686Z,50.40
2022-12-18T15:13:29.145Z,47.65
2022-12-18T15:15:57.682Z,54.95
2022-12-18T15:18:32.966Z,62.22
2022-12-18T15:21:07.972Z,65.35
2022-12-18T15:23:37.332Z,70.13
2022-12-18T15:26:09.585Z,70.97
2022-12-18T15:28:40.416Z,70.25
2022-12-18T15:31:23.375Z,64.93
2022-12-18T15:34:10.874Z,70.23
2022-12-18T15:36:37.549Z,72.00
2022-12-18T15:39:06.787Z,74.22
2022-12-18T15:41:36.229Z,74.20
2022-12-18T15:44:04.500Z,78.40
2022-12-18T15:46:31.169Z,72.70
2022-12-18T15:49:02.388Z,80.97
2022-12-18T15:51:35.407Z,70.97
2022-12-18T15:54:03.996Z,75.03
2022-12-18T15:56:30.671Z,68.95
2022-12-18T15:58:57.995Z,67.85
2022-12-18T16:01:27.287Z,73.22
2022-12-18T16:03:54.091Z,66.30
2022-12-18T16:06:20.772Z,71.18
2022-12-18T16:08:49.244Z,67.93
2022-12-18T16:11:22.681Z,61.70
2022-12-18T16:13:49.319Z,58.50
2022-12-18T16:16:16.988Z,60.63
2022-12-18T16:18:43.615Z,62.35
2022-12-18T16:21:10.433Z,60.97
2022-12-18T16:23:37.236Z,54.70
2022-12-18T16:26:05.673Z,65.63
2022-12-18T16:28:32.569Z,60.20
2022-12-18T16:31:00.062Z,64.35
2022-12-18T16:33:26.777Z,67.25
2022-12-18T16:35:53.878Z,63.10
2022-12-18T16:38:20.677Z,98.80
2022-12-18T16:40:47.286Z,63.75
2022-12-18T16:43:15.194Z,53.20
2022-12-18T16:45:41.838Z,59.22
2022-12-18T16:48:08.510Z,73.43
2022-12-18T16:50:35.214Z,58.28
2022-12-18T16:53:01.782Z,54.30
2022-12-18T16:55:28.412Z,60.28
2022-12-18T16:57:55.010Z,47.67
2022-12-18T17:00:23.022Z,53.05
2022-12-18T17:02:49.914Z,46.60
2022-12-18T17:05:16.793Z,42.58
2022-12-18T17:07:43.428Z,47.67
2022-12-18T17:10:10.310Z,47.88
2022-12-18T17:12:37.003Z,46.65
2022-12-18T17:15:04.215Z,47.30
2022-12-18T17:17:32.171Z,45.50
2022-12-18T17:19:58.884Z,47.20
2022-12-18T17:22:25.453Z,52.45
2022-12-18T17:24:52.050Z,42.65
2022-12-18T17:27:18.799Z,48.95
2022-12-18T17:29:48.238Z,44.83
2022-12-18T17:32:16.084Z,45.67
2022-12-18T17:34:44.230Z,43.25
2022-12-18T17:37:10.890Z,45.90
2022-12-18T17:39:37.610Z,47.80
2022-12-18T17:42:05.310Z,51.47
2022-12-18T17:44:32.418Z,43.58
2022-12-18T17:46:59.130Z,43.95
2022-12-18T17:49:25.734Z,39.58
2022-12-18T17:51:53.753Z,45.92
2022-12-18T17:54:20.790Z,42.72
2022-12-18T17:56:47.520Z,44.70
2022-12-18T17:59:14.681Z,46.10
2022-12-18T18:01:44.824Z,43.97
2022-12-18T18:04:12.572Z,42.08
2022-12-18T18:06:39.582Z,45.05
2022-12-18T18:09:09.242Z,45.17
2022-12-18T18:11:43.108Z,46.85
2022-12-18T18:14:13.689Z,43.20
2022-12-18T18:16:42.190Z,49.17
2022-12-18T18:19:11.142Z,44.28
2022-12-18T18:21:39.314Z,39.85
2022-12-18T18:24:09.385Z,48.08
2022-12-18T18:26:37.161Z,48.50
2022-12-18T18:29:05.885Z,42.95
2022-12-18T18:31:33.805Z,44.78
2022-12-18T18:34:03.765Z,46.22
2022-12-18T18:36:30.496Z,46.22
2022-12-18T18:38:59.535Z,51.17
2022-12-18T18:41:27.761Z,53.28
2022-12-18T18:43:55.203Z,48.20
2022-12-18T18:46:22.394Z,52.53
2022-12-18T18:48:49.380Z,38.47
2022-12-18T18:51:31.435Z,48.92
2022-12-18T18:54:01.427Z,52.85
2022-12-18T18:59:16.605Z,59.15
2022-12-18T19:01:44.066Z,51.10
2022-12-18T19:04:11.225Z,55.03
2022-12-18T19:06:37.829Z,56.20
2022-12-18T19:09:05.813Z,52.58
2022-12-18T19:11:36.369Z,48.45
2022-12-18T19:14:04.783Z,48.72
2022-12-18T19:16:32.873Z,59.90
2022-12-18T19:19:01.863Z,53.30
2022-12-18T19:21:29.535Z,59.42
2022-12-18T19:23:59.155Z,45.88
2022-12-18T19:26:28.662Z,53.42
2022-12-18T19:29:01.985Z,58.03
2022-12-18T19:31:34.750Z,56.38
2022-12-18T19:34:11.978Z,57.60
2022-12-18T19:36:40.894Z,55.90
2022-12-18T19:39:10.216Z,60.88
2022-12-18T19:41:37.078Z,55.03
2022-12-18T19:44:07.697Z,52.72
2022-12-18T19:46:35.769Z,56.30
2022-12-18T19:49:02.744Z,56.92
2022-12-18T19:51:31.273Z,59.92
2022-12-18T19:54:01.244Z,54.88
2022-12-18T19:56:30.403Z,58.30
2022-12-18T19:58:57.727Z,60.13
2022-12-18T20:01:27.108Z,55.08
2022-12-18T20:03:55.498Z,58.35
2022-12-18T20:06:26.360Z,64.63
2022-12-18T20:08:57.989Z,60.70
2022-12-18T20:11:27.101Z,53.75
2022-12-18T20:13:53.653Z,60.40
2022-12-18T20:16:20.324Z,54.28
2022-12-18T20:18:48.629Z,62.38
2022-12-18T20:21:16.174Z,62.35
2022-12-18T20:23:43.299Z,62.42
2022-12-18T20:26:10.596Z,55.17
2022-12-18T20:28:37.783Z,61.17
2022-12-18T20:31:07.248Z,55.78
2022-12-18T20:33:35.711Z,55.33
2022-12-18T20:36:05.737Z,63.20
2022-12-18T20:38:33.086Z,52.90
2022-12-18T20:41:00.752Z,54.42
2022-12-18T20:43:27.344Z,55.22
2022-12-18T20:46:00.679Z,59.75
2022-12-18T20:48:27.904Z,54.25
2022-12-18T20:50:57.848Z,52.67
2022-12-18T20:53:27.193Z,51.08
2022-12-18T20:55:53.805Z,56.08
2022-12-18T20:58:20.745Z,59.25
2022-12-18T21:00:47.474Z,58.25
2022-12-18T21:03:14.310Z,53.95
2022-12-18T21:05:40.951Z,47.90
2022-12-18T21:08:09.607Z,57.83
2022-12-18T21:10:39.606Z,55.35
2022-12-18T21:13:07.864Z,51.00
2022-12-18T21:15:35.363Z,52.30
2022-12-18T21:18:01.982Z,55.67
2022-12-18T21:20:28.896Z,53.83
2022-12-18T21:22:55.586Z,60.03
2022-12-18T21:25:25.801Z,55.38
2022-12-18T21:27:53.806Z,55.08
2022-12-18T21:30:20.448Z,66.85
2022-12-18T21:32:47.202Z,53.10
2022-12-18T21:35:13.859Z,53.45
2022-12-18T21:37:40.419Z,49.22
2022-12-18T21:40:08.454Z,56.60
2022-12-18T21:42:35.309Z,57.58
2022-12-18T21:45:03.750Z,59.30
2022-12-18T21:47:30.393Z,48.78
2022-12-18T21:49:56.974Z,51.42
2022-12-18T21:52:32.297Z,58.97
2022-12-18T21:55:07.835Z,56.20
2022-12-18T21:57:36.277Z,50.30
2022-12-18T22:00:05.424Z,54.08
2022-12-18T22:02:32.179Z,57.90
2022-12-18T22:04:59.044Z,52.45
2022-12-18T22:07:25.933Z,50.78
2022-12-18T22:09:52.493Z,54.80
2022-12-18T22:12:19.058Z,53.42
2022-12-18T22:14:45.692Z,57.92
2022-12-18T22:17:13.697Z,58.85
2022-12-18T22:19:43.238Z,56.60
2022-12-18T22:22:10.315Z,57.78
2022-12-18T22:24:36.955Z,62.17
2022-12-18T22:27:03.653Z,53.05
2022-12-18T22:29:30.807Z,52.17
2022-12-18T22:31:59.339Z,50.33
2022-12-18T22:34:27.592Z,54.70
2022-12-18T22:36:54.661Z,62.40
2022-12-18T22:39:23.320Z,59.45
2022-12-18T22:41:51.235Z,54.92
2022-12-18T22:44:18.342Z,52.45
2022-12-18T22:46:46.850Z,54.17
2022-12-18T22:49:19.057Z,55.50
2022-12-18T22:51:47.943Z,48.92
2022-12-18T22:54:15.025Z,55.90
2022-12-18T22:56:41.673Z,60.40
2022-12-18T22:59:08.663Z,52.97
2022-12-18T23:01:35.492Z,49.95
2022-12-18T23:04:03.503Z,57.08
2022-12-18T23:06:30.342Z,52.92
2022-12-18T23:08:58.337Z,51.22
2022-12-18T23:11:26.016Z,58.70
2022-12-18T23:13:52.890Z,48.60
2022-12-18T23:16:23.373Z,47.92
2022-12-18T23:18:54.054Z,54.10
2022-12-18T23:21:21.837Z,50.22
2022-12-18T23:23:49.754Z,60.53
2022-12-18T23:26:19.941Z,52.72
2022-12-18T23:28:46.657Z,52.33
2022-12-18T23:31:15.620Z,53.53
2022-12-18T23:33:44.287Z,49.97
2022-12-18T23:36:11.775Z,50.58
2022-12-18T23:38:38.697Z,44.38
2022-12-18T23:41:09.762Z,50.25
2022-12-18T23:43:38.179Z,51.58
2022-12-18T23:46:10.920Z,48.05
2022-12-18T23:48:37.844Z,49.38
2022-12-18T23:51:06.138Z,47.65
2022-12-18T23:53:32.788Z,55.35
2022-12-18T23:56:00.164Z,45.58
2022-12-18T23:58:27.408Z,48.03
